Hialeah Gardens, Florida
Current Conditions -  °F | °C
As of 2:15 PM on Friday 21 Nov 2014 (Local Time) from KMIA Reporting Station
Moderate Rain Moderate Rain  
Wind Chill: 71°   Ceiling: 1000
Heat Index: 71°   Visibility: 1mi
Dew Point: 69°   Wind: 14mph
Humidity: 93%   Direction: 50°NE
Pressure: 30.13"   Gusts: 21mph
Location:  25.8324°N, 80.2789°W
Report Text: KMIA 211915Z 05012G18KT 1SM RA BR SCT007 BKN010 OVC015 22/21 A3013 RMK AO2 P0005 T02170206
Loading
Personal Weather Stations






























Interactive Weather Map New forecast layout! Learn more

10-Day Weather Forecast

Advertisements
Track Severe Weather on mobile